Time;durP1;ratioP1;P1;durP2;ratioP2;P2;SDS_P1;SDS_P2;PMS_P1;PMS_P2;Temp;Humidity;BMP_temperature;BMP_pressure;BME280_temperature;BME280_humidity;BME280_pressure;Samples;Min_cycle;Max_cycle;Signal;HPM_P1;HPM_P2
2022/04/13 00:02:13;;;;;;;36.20;8.20;;;;;;;25.71;49.31;97707.88;4908978;29;20055;-73
2022/04/13 00:05:03;;;;;;;51.83;7.80;;;;;;;25.78;49.55;97711.50;4894748;29;20051;-72
2022/04/13 00:07:53;;;;;;;40.00;7.47;;;;;;;25.78;51.12;97719.41;4909214;29;20056;-73
2022/04/13 00:10:43;;;;;;;34.85;8.38;;;;;;;25.71;52.63;97715.78;4907442;29;20052;-73
2022/04/13 00:13:24;;;;;;;26.33;8.00;;;;;;;25.64;53.30;97713.97;4907747;29;20080;-72
2022/04/13 00:16:14;;;;;;;46.15;10.15;;;;;;;25.64;51.05;97719.25;4907109;29;20128;-73
2022/04/13 00:19:03;;;;;;;45.65;11.68;;;;;;;25.71;47.73;97722.88;4908381;29;20056;-71
2022/04/13 00:21:53;;;;;;;51.53;13.88;;;;;;;25.67;50.02;97713.66;4908903;29;20055;-72
2022/04/13 00:24:34;;;;;;;75.88;16.08;;;;;;;25.69;47.34;97712.50;4908898;29;20067;-72
2022/04/13 00:27:24;;;;;;;58.92;14.10;;;;;;;25.77;48.59;97709.03;4910058;28;20059;-72
2022/04/13 00:30:13;;;;;;;48.22;15.23;;;;;;;25.68;53.85;97717.94;4916802;29;20066;-72
2022/04/13 00:33:02;;;;;;;73.35;19.70;;;;;;;25.83;46.35;97713.66;4909046;29;20047;-71
2022/04/13 00:35:43;;;;;;;62.88;15.85;;;;;;;25.81;47.72;97705.06;4912528;29;20059;-73
2022/04/13 00:38:33;;;;;;;46.40;14.48;;;;;;;25.75;48.56;97706.56;4904780;29;20435;-73
2022/04/13 00:41:14;;;;;;;46.00;13.50;;;;;;;25.78;50.85;97705.41;4916392;29;20051;-72
2022/04/13 00:44:18;;;;;;;42.17;11.48;;;;;;;25.68;47.56;97699.47;4910337;29;20065;-72
2022/04/13 00:47:03;;;;;;;52.20;10.52;;;;;;;25.65;49.81;97700.63;4912323;29;20575;-72
2022/04/13 00:49:56;;;;;;;44.38;7.80;;;;;;;25.68;48.76;97699.47;4916268;29;20111;-72
2022/04/13 00:52:49;;;;;;;66.88;9.85;;;;;;;25.62;48.71;97694.88;4915862;29;20154;-72
2022/04/13 00:55:40;;;;;;;50.05;9.82;;;;;;;25.61;48.37;97695.84;4915360;29;20128;-72
2022/04/13 00:58:33;;;;;;;48.97;10.00;;;;;;;25.56;50.27;97696.28;4901200;29;20792;-73
2022/04/13 01:01:22;;;;;;;43.05;7.13;;;;;;;25.58;51.53;97688.22;4917063;29;20051;-72
2022/04/13 01:04:05;;;;;;;47.15;7.88;;;;;;;25.55;52.77;97690.19;4918102;29;20055;-72
2022/04/13 01:06:54;;;;;;;52.47;8.60;;;;;;;25.44;49.46;97693.16;4916765;29;20578;-72
2022/04/13 01:09:37;;;;;;;44.28;9.65;;;;;;;25.43;54.53;97693.31;4903503;29;20488;-73
2022/04/13 01:12:26;;;;;;;35.33;8.90;;;;;;;25.40;51.15;97689.19;4908301;29;20074;-72
2022/04/13 01:15:08;;;;;;;49.00;9.60;;;;;;;25.37;49.28;97696.63;4909844;29;20075;-72
2022/04/13 01:17:57;;;;;;;37.70;8.35;;;;;;;25.41;50.08;97692.66;4908777;29;20139;-72
2022/04/13 01:20:56;;;;;;;54.50;9.82;;;;;;;25.35;49.98;97699.41;4908833;29;20059;-73
2022/04/13 01:23:45;;;;;;;51.85;11.15;;;;;;;25.33;51.90;97696.09;4907622;29;20052;-72
2022/04/13 01:26:26;;;;;;;56.45;11.38;;;;;;;25.33;51.73;97698.75;4906745;29;20175;-72
2022/04/13 01:29:21;;;;;;;55.90;12.10;;;;;;;25.45;54.90;97694.00;4911349;28;20048;-72
2022/04/13 01:31:57;;;;;;;43.00;11.15;;;;;;;25.51;57.55;97704.72;4902346;29;20056;-72
2022/04/13 01:34:51;;;;;;;37.65;11.48;;;;;;;25.57;58.40;97697.94;4908852;29;20047;-72
2022/04/13 01:37:33;;;;;;;50.63;10.20;;;;;;;25.54;58.89;97704.34;4909049;29;20505;-73
2022/04/13 01:40:28;;;;;;;49.88;11.02;;;;;;;25.45;55.67;97705.38;4907532;29;20052;-72
2022/04/13 01:43:03;;;;;;;49.53;10.73;;;;;;;25.54;59.86;97698.28;4902547;29;20476;-71
2022/04/13 01:45:53;;;;;;;56.97;13.32;;;;;;;25.60;55.32;97702.94;4899773;29;20521;-74
2022/04/13 01:48:35;;;;;;;53.20;11.52;;;;;;;25.64;59.52;97708.69;4908406;29;20052;-72
2022/04/13 01:51:22;;;;;;;48.95;11.45;;;;;;;25.77;61.20;97703.75;4908354;29;20056;-72
2022/04/13 01:54:12;;;;;;;61.38;14.05;;;;;;;25.80;56.88;97706.88;4908185;29;20128;-71
2022/04/13 01:56:54;;;;;;;49.20;12.82;;;;;;;25.92;61.47;97705.56;4909164;29;20048;-73
2022/04/13 01:59:44;;;;;;;47.88;13.38;;;;;;;25.99;58.99;97713.63;4908531;29;20127;-72
2022/04/13 02:02:26;;;;;;;59.25;15.95;;;;;;;26.13;57.78;97712.97;4906893;29;20485;-73
2022/04/13 02:05:15;;;;;;;75.88;16.25;;;;;;;26.17;53.67;97713.47;4903642;29;20059;-72
2022/04/13 02:08:10;;;;;;;54.38;13.98;;;;;;;26.42;54.72;97709.78;4896076;29;20120;-71
2022/04/13 02:10:45;;;;;;;64.13;15.07;;;;;;;26.55;54.72;97703.97;4904569;29;20072;-71
2022/04/13 02:13:34;;;;;;;49.42;15.13;;;;;;;26.70;53.64;97712.84;4908760;29;20036;-72
2022/04/13 02:16:16;;;;;;;68.50;16.33;;;;;;;26.98;52.88;97711.41;4892724;29;20055;-73
2022/04/13 02:19:12;;;;;;;54.22;14.60;;;;;;;27.32;52.90;97713.69;4908827;29;20052;-72
2022/04/13 02:21:47;;;;;;;72.65;15.80;;;;;;;27.59;51.79;97722.97;4911865;29;20129;-72
2022/04/13 02:24:41;;;;;;;59.00;15.18;;;;;;;27.99;50.22;97715.72;4908344;29;20059;-73
2022/04/13 02:27:29;;;;;;;67.50;19.08;;;;;;;28.11;48.44;97725.69;4891741;28;20556;-73
2022/04/13 02:30:17;;;;;;;70.28;18.17;;;;;;;28.50;49.66;97724.66;4917090;29;20053;-73
2022/04/13 02:32:59;;;;;;;62.50;17.73;;;;;;;28.43;47.23;97732.50;4895839;29;20071;-73
2022/04/13 02:35:47;;;;;;;61.83;16.42;;;;;;;28.76;48.93;97732.19;4895234;29;20064;-73
2022/04/13 02:38:30;;;;;;;49.58;17.05;;;;;;;28.86;48.97;97732.72;4912207;29;20068;-73
2022/04/13 02:41:25;;;;;;;55.50;16.25;;;;;;;29.25;48.10;97735.03;4915736;29;20051;-73
2022/04/13 02:44:00;;;;;;;65.70;18.60;;;;;;;29.26;46.56;97737.50;4923133;29;20040;-73
2022/04/13 02:46:49;;;;;;;79.25;19.65;;;;;;;29.10;46.48;97736.91;4911088;29;20128;-72
2022/04/13 02:49:31;;;;;;;69.63;22.80;;;;;;;29.03;47.12;97746.63;4923076;29;20122;-74
2022/04/13 02:52:28;;;;;;;80.03;25.52;;;;;;;29.14;46.21;97749.59;4929871;29;20075;-74
2022/04/13 02:55:03;;;;;;;68.30;26.00;;;;;;;29.00;49.39;97753.09;4928795;29;20070;-73
2022/04/13 02:57:59;;;;;;;78.00;25.70;;;;;;;29.32;48.85;97751.84;4930727;29;20048;-73
2022/04/13 03:00:35;;;;;;;89.60;26.27;;;;;;;29.21;46.87;97766.41;4929212;29;20059;-74
2022/04/13 03:03:23;;;;;;;77.90;25.83;;;;;;;29.34;49.77;97759.63;4892872;29;20054;-73
2022/04/13 03:06:06;;;;;;;77.75;25.23;;;;;;;29.34;47.00;97760.44;4907286;29;20079;-73
2022/04/13 03:09:01;;;;;;;82.85;24.40;;;;;;;29.27;49.01;97759.56;4898227;29;20044;-73
2022/04/13 03:11:38;;;;;;;75.72;23.92;;;;;;;29.25;47.44;97762.38;4926762;29;20052;-72
2022/04/13 03:14:26;;;;;;;69.35;22.35;;;;;;;29.45;48.09;97770.63;4929055;29;20476;-72
2022/04/13 03:17:09;;;;;;;61.72;19.83;;;;;;;29.60;47.81;97762.59;4930163;29;20665;-73
2022/04/13 03:19:57;;;;;;;54.08;18.58;;;;;;;29.58;48.09;97769.94;4923152;29;20056;-73
2022/04/13 03:22:46;;;;;;;60.15;17.27;;;;;;;29.71;47.39;97767.41;4930012;29;20059;-73
2022/04/13 03:25:27;;;;;;;53.72;19.00;;;;;;;29.86;46.68;97770.00;4910552;29;20056;-73
2022/04/13 03:28:23;;;;;;;48.53;15.82;;;;;;;30.09;49.57;97764.53;4941174;28;20058;-73
2022/04/13 03:30:59;;;;;;;55.08;16.88;;;;;;;30.27;46.03;97776.31;4955842;28;20154;-73
2022/04/13 03:33:48;;;;;;;62.38;17.27;;;;;;;30.40;43.84;97778.25;4940288;28;20078;-69
2022/04/13 03:36:32;;;;;;;;;;;;;;;30.65;45.82;97787.44;4945961;28;20059;-69
2022/04/13 03:39:20;;;;;;;61.22;15.93;;;;;;;30.80;44.97;97792.66;4949696;28;19930;-69
2022/04/13 03:42:03;;;;;;;53.05;16.20;;;;;;;30.90;44.61;97785.13;4946519;28;20047;-69
2022/04/13 03:44:58;;;;;;;64.35;15.77;;;;;;;30.92;42.23;97787.59;4941966;28;20051;-69
2022/04/13 03:47:34;;;;;;;71.28;18.73;;;;;;;31.05;41.71;97793.81;4941998;28;20050;-72
2022/04/13 03:50:22;;;;;;;57.53;16.20;;;;;;;31.24;44.76;97789.63;4944907;28;20058;-70
2022/04/13 03:53:05;;;;;;;58.92;17.05;;;;;;;31.28;41.75;97793.56;4949622;28;20094;-71
2022/04/13 03:56:00;;;;;;;37.53;15.73;;;;;;;31.43;47.65;97785.41;4949483;29;20058;-70
2022/04/13 03:58:35;;;;;;;51.28;17.42;;;;;;;31.59;44.82;97789.56;4948483;29;20075;-70
2022/04/13 04:01:30;;;;;;;59.90;17.00;;;;;;;31.82;41.10;97790.03;4944686;28;20047;-70
2022/04/13 04:04:05;;;;;;;46.42;16.70;;;;;;;31.95;40.25;97798.03;4944698;28;20086;-70
2022/04/13 04:06:53;;;;;;;48.65;18.02;;;;;;;32.00;46.25;97789.47;4930387;29;20044;-70
2022/04/13 04:09:35;;;;;;;55.90;17.88;;;;;;;32.10;42.68;97788.00;4946469;28;20085;-70
2022/04/13 04:12:24;;;;;;;43.25;17.27;;;;;;;32.21;44.34;97792.78;4946800;29;20051;-70
2022/04/13 04:15:14;;;;;;;49.10;18.25;;;;;;;32.49;41.09;97797.88;4950369;28;20063;-70
2022/04/13 04:17:56;;;;;;;50.53;18.17;;;;;;;32.71;44.46;97789.69;4946759;28;20539;-71
2022/04/13 04:20:46;;;;;;;39.28;17.48;;;;;;;32.90;45.50;97794.97;4948607;28;20403;-70
2022/04/13 04:23:27;;;;;;;58.85;20.20;;;;;;;33.08;45.63;97786.28;4946521;29;20055;-70
2022/04/13 04:26:16;;;;;;;60.00;18.65;;;;;;;33.31;41.00;97793.81;4949252;28;20039;-69
2022/04/13 04:28:57;;;;;;;45.13;16.92;;;;;;;33.39;39.16;97804.28;4948480;29;20043;-71
2022/04/13 04:31:50;;;;;;;53.88;17.17;;;;;;;33.72;43.38;97796.94;4946096;28;20061;-71
2022/04/13 04:34:33;;;;;;;69.18;18.40;;;;;;;33.33;36.77;97808.63;4946070;28;20043;-70
2022/04/13 04:37:21;;;;;;;63.03;18.90;;;;;;;33.87;38.99;97801.16;4947686;29;20110;-71
2022/04/13 04:40:16;;;;;;;74.13;19.48;;;;;;;34.09;37.32;97813.97;4945335;28;20087;-69
2022/04/13 04:42:51;;;;;;;70.57;19.17;;;;;;;34.47;35.18;97821.94;4948225;29;20186;-68
2022/04/13 04:45:46;;;;;;;58.30;19.10;;;;;;;34.25;36.09;97814.50;4947653;29;20051;-68
2022/04/13 04:48:21;;;;;;;70.50;17.08;;;;;;;34.71;39.13;97808.75;4945643;29;20318;-68
2022/04/13 04:51:09;;;;;;;46.05;17.75;;;;;;;35.07;43.31;97810.66;4945523;29;20055;-67
2022/04/13 04:53:51;;;;;;;52.88;18.00;;;;;;;34.93;36.99;97810.00;4946139;29;20518;-67
2022/04/13 04:56:40;;;;;;;63.30;20.30;;;;;;;34.52;35.86;97803.34;4944362;28;20134;-67
2022/04/13 04:59:22;;;;;;;58.80;17.50;;;;;;;34.66;38.83;97808.56;4944498;28;20051;-67
2022/04/13 05:02:10;;;;;;;55.10;19.70;;;;;;;35.06;40.39;97809.84;4945232;28;20058;-67
2022/04/13 05:04:53;;;;;;;57.87;21.43;;;;;;;35.04;37.25;97811.13;4946049;28;20051;-67
2022/04/13 05:07:41;;;;;;;61.85;20.92;;;;;;;35.40;44.78;97810.28;4946870;29;20055;-67
2022/04/13 05:10:30;;;;;;;54.58;21.17;;;;;;;35.65;37.76;97816.34;4947760;29;20047;-67
2022/04/13 05:13:11;;;;;;;63.13;22.08;;;;;;;35.73;41.59;97810.72;4941359;28;20087;-67
2022/04/13 05:16:01;;;;;;;64.57;24.02;;;;;;;35.65;38.61;97822.53;4936601;28;20043;-67
2022/04/13 05:18:45;;;;;;;52.38;21.35;;;;;;;35.74;40.65;97817.69;4948036;29;20539;-67
2022/04/13 05:21:34;;;;;;;41.95;20.33;;;;;;;35.76;43.76;97820.94;4944500;29;20492;-67
2022/04/13 05:24:15;;;;;;;60.30;20.67;;;;;;;35.67;37.34;97825.81;4929007;29;20055;-67
2022/04/13 05:27:05;;;;;;;46.33;20.17;;;;;;;35.76;38.82;97817.47;4945827;29;20047;-67
2022/04/13 05:29:46;;;;;;;58.33;20.45;;;;;;;35.88;35.39;97815.66;4947731;29;20055;-67
2022/04/13 05:32:36;;;;;;;44.70;19.98;;;;;;;35.95;36.25;97811.81;4946239;29;20095;-67
2022/04/13 05:35:18;;;;;;;59.53;21.77;;;;;;;35.75;38.19;97807.81;4946493;29;20061;-67
2022/04/13 05:38:07;;;;;;;46.28;18.85;;;;;;;35.86;39.78;97807.81;4945539;29;20054;-67
2022/04/13 05:40:48;;;;;;;52.55;19.55;;;;;;;35.85;35.74;97806.19;4946148;28;20043;-68
2022/04/13 05:43:38;;;;;;;48.72;19.13;;;;;;;35.97;39.82;97806.22;4947293;29;20051;-67
2022/04/13 05:46:20;;;;;;;59.55;20.95;;;;;;;35.84;35.29;97804.53;4944341;29;20055;-67
2022/04/13 05:49:09;;;;;;;53.03;20.95;;;;;;;36.01;39.44;97807.38;4945292;29;20074;-66
2022/04/13 05:51:57;;;;;;;66.32;22.20;;;;;;;35.81;38.31;97805.03;4944717;29;20047;-68
2022/04/13 05:54:47;;;;;;;47.42;20.50;;;;;;;35.94;40.15;97804.81;4942513;29;20138;-67
2022/04/13 05:57:28;;;;;;;55.58;24.00;;;;;;;35.90;38.30;97805.50;4935685;29;20059;-67
2022/04/13 06:00:19;;;;;;;55.90;21.67;;;;;;;35.86;39.52;97802.47;4943347;28;20047;-67
2022/04/13 06:03:01;;;;;;;49.72;20.30;;;;;;;35.84;40.20;97793.81;4945658;29;20051;-67
2022/04/13 06:06:10;;;;;;;65.00;22.02;;;;;;;35.84;39.54;97793.81;4926305;29;20044;-67
2022/04/13 06:08:51;;;;;;;59.33;21.42;;;;;;;36.19;40.07;97801.97;4946952;28;20050;-67
2022/04/13 06:11:41;;;;;;;62.97;22.35;;;;;;;36.62;43.26;97793.63;4933019;29;20634;-67
2022/04/13 06:14:29;;;;;;;70.68;23.02;;;;;;;36.59;37.69;97795.94;4950108;28;20125;-65
2022/04/13 06:17:19;;;;;;;57.78;22.85;;;;;;;36.60;38.24;97782.28;4950850;29;20051;-67
2022/04/13 06:20:08;;;;;;;52.63;22.02;;;;;;;36.69;42.18;97786.28;4949417;29;20059;-65
2022/04/13 06:22:57;;;;;;;65.32;22.35;;;;;;;36.63;35.22;97781.03;4951727;29;20051;-67
2022/04/13 06:25:38;;;;;;;52.80;21.40;;;;;;;36.78;41.23;97782.19;4951376;29;20057;-67
2022/04/13 06:28:34;;;;;;;63.20;22.05;;;;;;;36.91;42.25;97773.06;4949998;29;20051;-67
2022/04/13 06:31:22;;;;;;;50.13;22.05;;;;;;;36.92;40.11;97777.38;4950411;29;20506;-67
2022/04/13 06:34:11;;;;;;;46.13;21.48;;;;;;;36.93;38.77;97779.03;4950517;29;20115;-67
2022/04/13 06:36:52;;;;;;;57.65;21.73;;;;;;;37.07;37.19;97771.50;4950733;29;20051;-67
2022/04/13 06:39:42;;;;;;;54.53;21.63;;;;;;;37.07;35.65;97766.94;4950449;29;20122;-68
2022/04/13 06:42:23;;;;;;;44.90;19.85;;;;;;;36.95;37.72;97766.19;4951283;28;20159;-68
2022/04/13 06:45:16;;;;;;;45.70;19.60;;;;;;;37.16;36.98;97764.75;4961799;28;20051;-66
2022/04/13 06:47:57;;;;;;;55.10;20.15;;;;;;;37.13;37.92;97754.47;4949514;29;20047;-67
2022/04/13 06:50:48;;;;;;;48.22;19.45;;;;;;;36.98;31.51;97756.81;4950084;29;20059;-67
2022/04/13 06:53:36;;;;;;;60.90;18.25;;;;;;;36.57;28.74;97750.53;4940522;29;20103;-67
2022/04/13 06:56:26;;;;;;;59.20;18.42;;;;;;;36.78;32.34;97752.66;4939105;28;20043;-68
2022/04/13 06:59:07;;;;;;;40.08;18.35;;;;;;;37.04;35.29;97743.25;4946590;29;20051;-65
2022/04/13 07:01:57;;;;;;;49.95;18.90;;;;;;;36.96;34.76;97743.63;4950041;29;20478;-67
2022/04/13 07:04:45;;;;;;;47.22;18.95;;;;;;;36.94;36.48;97736.88;4950326;29;20546;-67
2022/04/13 07:07:35;;;;;;;47.72;18.52;;;;;;;36.89;32.78;97742.13;4947309;29;20043;-67
2022/04/13 07:10:17;;;;;;;47.28;17.15;;;;;;;37.03;38.17;97727.38;4949757;29;20046;-67
2022/04/13 07:13:11;;;;;;;33.65;14.05;;;;;;;36.80;30.25;97729.06;4948025;29;20043;-67
2022/04/13 07:15:59;;;;;;;30.80;12.40;;;;;;;36.80;28.73;97734.41;4948449;29;20062;-67
2022/04/13 07:18:49;;;;;;;30.42;10.65;;;;;;;36.85;29.04;97728.34;4947507;28;20055;-67
2022/04/13 07:21:30;;;;;;;28.85;9.77;;;;;;;36.87;28.31;97726.25;4949712;29;20047;-67
2022/04/13 07:24:40;;;;;;;44.67;12.57;;;;;;;36.99;31.24;97718.16;4949415;28;20059;-67
2022/04/13 07:27:21;;;;;;;43.95;14.02;;;;;;;36.83;27.83;97721.59;4949964;29;20122;-67
2022/04/13 07:30:18;;;;;;;44.05;14.38;;;;;;;36.80;28.72;97718.31;4937614;29;20167;-67
2022/04/13 07:33:01;;;;;;;39.13;16.10;;;;;;;36.41;25.45;97713.66;4927850;29;20705;-67
2022/04/13 07:35:49;;;;;;;34.40;13.50;;;;;;;36.78;29.94;97704.31;4927249;29;20063;-67
2022/04/13 07:38:32;;;;;;;41.72;14.90;;;;;;;36.63;28.26;97700.47;4929987;29;20365;-67
2022/04/13 07:41:20;;;;;;;37.80;13.80;;;;;;;36.61;31.33;97689.97;4927919;29;20060;-67
2022/04/13 07:44:11;;;;;;;45.42;13.52;;;;;;;36.56;28.45;97691.75;4929814;29;20491;-67
2022/04/13 07:46:52;;;;;;;43.30;14.00;;;;;;;36.61;31.54;97683.78;4928647;29;20123;-66
2022/04/13 07:49:42;;;;;;;62.17;16.42;;;;;;;36.66;32.23;97689.25;4923320;29;20056;-67
2022/04/13 07:52:24;;;;;;;56.88;16.08;;;;;;;36.63;36.05;97679.00;4925550;29;20577;-67
2022/04/13 07:55:16;;;;;;;46.05;16.60;;;;;;;36.67;37.22;97678.31;4923960;29;20059;-67
2022/04/13 07:57:57;;;;;;;69.07;16.33;;;;;;;36.66;33.38;97679.34;4929540;29;20586;-67
2022/04/13 08:00:47;;;;;;;46.95;14.90;;;;;;;36.62;33.15;97667.44;4928392;29;20047;-67
2022/04/13 08:03:28;;;;;;;44.63;15.00;;;;;;;36.67;33.66;97667.56;4927469;29;20059;-67
2022/04/13 08:06:18;;;;;;;53.30;14.10;;;;;;;36.47;32.60;97660.94;4929060;29;20099;-68
2022/04/13 08:09:00;;;;;;;52.92;14.30;;;;;;;36.54;35.01;97654.38;4925972;29;20813;-68
2022/04/13 08:11:52;;;;;;;43.20;14.48;;;;;;;36.43;28.65;97652.53;4928719;29;20060;-68
2022/04/13 08:14:33;;;;;;;43.30;13.70;;;;;;;36.42;31.04;97651.72;4929544;29;20048;-68
2022/04/13 08:17:24;;;;;;;46.05;13.82;;;;;;;36.50;31.32;97647.03;4928879;29;20063;-68
2022/04/13 08:20:14;;;;;;;44.00;12.77;;;;;;;36.45;31.11;97645.06;4928871;29;20355;-68
2022/04/13 08:22:57;;;;;;;46.78;13.50;;;;;;;36.54;31.60;97638.28;4928823;29;20083;-68
2022/04/13 08:25:45;;;;;;;51.20;14.13;;;;;;;36.49;28.65;97635.47;4926313;29;20051;-67
2022/04/13 08:28:28;;;;;;;46.65;13.63;;;;;;;36.44;27.63;97616.59;4929571;29;20371;-67
2022/04/13 08:31:23;;;;;;;47.72;14.35;;;;;;;36.41;31.09;97617.88;4945818;28;20074;-68
2022/04/13 08:34:11;;;;;;;54.08;13.32;;;;;;;36.45;29.34;97622.78;4947424;29;20078;-67
2022/04/13 08:36:54;;;;;;;51.63;12.75;;;;;;;36.41;27.36;97611.69;4948297;29;20079;-67
2022/04/13 08:39:42;;;;;;;36.63;13.20;;;;;;;36.48;28.32;97615.03;4948058;29;20055;-68
2022/04/13 08:43:00;;;;;;;37.88;11.88;;;;;;;36.48;28.44;97611.56;4947386;28;20141;-67
2022/04/13 08:46:03;;;;;;;32.65;10.75;;;;;;;36.50;29.83;97604.91;4947320;29;20047;-67
2022/04/13 08:48:48;;;;;;;40.42;10.32;;;;;;;36.46;26.75;97601.06;4947077;29;20047;-67
2022/04/13 08:52:09;;;;;;;36.30;11.32;;;;;;;36.43;30.06;97591.63;4946513;28;20115;-67
2022/04/13 08:55:07;;;;;;;40.75;11.80;;;;;;;36.31;27.87;97590.84;4944267;29;20074;-67
2022/04/13 08:58:31;;;;;;;39.83;10.73;;;;;;;36.29;26.75;97579.53;4946498;28;20075;-67
2022/04/13 09:01:16;;;;;;;39.65;11.07;;;;;;;36.17;29.19;97577.88;4947116;29;20066;-67
2022/04/13 09:04:10;;;;;;;45.53;11.00;;;;;;;36.10;29.75;97563.78;4948024;28;20130;-68
2022/04/13 09:07:02;;;;;;;33.53;10.70;;;;;;;36.00;29.50;97562.50;4946345;28;20234;-68
2022/04/13 09:09:54;;;;;;;37.17;10.23;;;;;;;35.97;24.01;97560.31;4944371;28;20055;-68
2022/04/13 09:12:46;;;;;;;29.60;9.32;;;;;;;35.97;29.71;97552.25;4946836;29;20115;-67
2022/04/13 09:15:28;;;;;;;42.10;11.40;;;;;;;35.96;26.04;97557.84;4947086;29;20443;-67
2022/04/13 09:18:17;;;;;;;29.48;9.00;;;;;;;36.01;25.15;97545.38;4946729;29;20053;-67
2022/04/13 09:21:05;;;;;;;33.75;9.32;;;;;;;36.07;25.00;97543.63;4948097;29;20051;-67
2022/04/13 09:23:55;;;;;;;37.50;9.57;;;;;;;36.02;27.32;97538.94;4946586;29;20106;-68
2022/04/13 09:26:45;;;;;;;27.50;10.02;;;;;;;35.97;28.02;97520.09;4945443;29;20051;-67
2022/04/13 09:29:40;;;;;;;40.35;11.35;;;;;;;35.96;26.95;97523.81;4945866;29;20055;-66
2022/04/13 09:32:16;;;;;;;39.42;11.00;;;;;;;36.09;26.30;97521.91;4944540;29;20047;-68
2022/04/13 09:35:07;;;;;;;45.15;11.15;;;;;;;36.03;28.19;97521.81;4931449;29;20530;-68
2022/04/13 09:37:50;;;;;;;34.72;10.40;;;;;;;36.01;27.28;97513.19;4945774;28;20129;-68
2022/04/13 09:40:42;;;;;;;36.95;11.00;;;;;;;35.92;29.90;97501.19;4945815;28;20058;-68
2022/04/13 09:43:29;;;;;;;34.47;9.65;;;;;;;35.89;27.39;97506.22;4946764;28;20134;-67
2022/04/13 09:46:35;;;;;;;44.55;10.48;;;;;;;35.89;27.29;97514.25;4945837;28;20074;-67
2022/04/13 09:49:11;;;;;;;33.25;9.40;;;;;;;35.95;28.93;97494.53;4945761;29;20467;-69
2022/04/13 09:52:00;;;;;;;35.90;10.02;;;;;;;35.92;28.32;97495.81;4947489;29;20446;-66
2022/04/13 09:54:45;;;;;;;34.28;8.60;;;;;;;35.88;27.35;97494.69;4947287;29;20048;-68
2022/04/13 09:57:35;;;;;;;33.42;9.70;;;;;;;35.90;28.13;97497.94;4947050;29;20427;-68
2022/04/13 10:00:17;;;;;;;32.88;10.02;;;;;;;35.81;25.83;97491.31;4944840;28;20047;-66
2022/04/13 10:03:25;;;;;;;42.97;9.98;;;;;;;35.92;25.50;97493.13;4944798;29;20043;-67
2022/04/13 10:06:06;;;;;;;21.30;8.63;;;;;;;35.89;26.87;97490.13;4946490;29;20063;-67
2022/04/13 10:09:05;;;;;;;38.33;8.48;;;;;;;35.89;25.92;97474.84;4942280;29;20457;-67
2022/04/13 10:12:03;;;;;;;36.53;8.00;;;;;;;35.84;25.64;97482.78;4946656;29;20082;-66
2022/04/13 10:14:52;;;;;;;37.90;8.73;;;;;;;35.86;24.50;97486.03;4946686;29;20054;-67
2022/04/13 10:17:34;;;;;;;30.25;7.90;;;;;;;35.77;27.51;97474.06;4946779;29;20066;-68
2022/04/13 10:20:23;;;;;;;32.08;9.10;;;;;;;35.68;28.18;97467.38;4943438;28;20122;-66
2022/04/13 10:23:12;;;;;;;36.80;9.25;;;;;;;35.56;28.96;97461.25;4946195;29;20604;-67
2022/04/13 10:26:16;;;;;;;38.38;8.35;;;;;;;35.46;25.39;97459.16;4946131;29;20051;-68
2022/04/13 10:28:57;;;;;;;34.45;8.35;;;;;;;35.43;27.49;97461.50;4945778;28;20059;-67
2022/04/13 10:31:47;;;;;;;38.95;7.85;;;;;;;35.46;26.32;97461.81;4930059;29;20059;-68
2022/04/13 10:34:31;;;;;;;30.38;8.45;;;;;;;35.37;28.34;97452.50;4946473;29;20050;-68
2022/04/13 10:37:23;;;;;;;32.53;7.00;;;;;;;35.27;28.71;97441.59;4945985;29;20051;-67
2022/04/13 10:40:05;;;;;;;23.88;7.00;;;;;;;35.11;30.87;97445.75;4930568;29;20051;-67
2022/04/13 10:42:57;;;;;;;27.75;7.88;;;;;;;35.04;27.15;97449.59;4945252;29;20048;-67
2022/04/13 10:45:53;;;;;;;25.65;7.22;;;;;;;35.05;27.52;97449.34;4945346;28;20043;-67
2022/04/13 10:48:34;;;;;;;34.67;9.70;;;;;;;35.00;28.24;97453.75;4946302;29;20055;-68
2022/04/13 10:51:31;;;;;;;23.30;7.10;;;;;;;35.01;25.86;97445.50;4945436;29;20074;-68
2022/04/13 10:54:21;;;;;;;28.70;7.30;;;;;;;34.88;27.27;97440.38;4944488;28;20166;-67
2022/04/13 10:57:10;;;;;;;34.33;7.25;;;;;;;34.85;26.23;97448.84;4949580;28;20044;-67
2022/04/13 11:00:03;;;;;;;33.90;6.68;;;;;;;34.87;25.03;97457.47;4948473;28;20118;-68
2022/04/13 11:03:03;;;;;;;21.98;7.07;;;;;;;34.91;28.08;97439.91;4949417;28;20415;-69
2022/04/13 11:05:53;;;;;;;28.27;7.15;;;;;;;34.83;25.04;97440.22;4949224;29;20051;-67
2022/04/13 11:08:47;;;;;;;26.70;7.57;;;;;;;34.77;28.66;97433.13;4950290;29;20067;-67
2022/04/13 11:11:37;;;;;;;24.23;7.40;;;;;;;34.66;28.39;97437.38;4949348;29;20055;-67
2022/04/13 11:14:20;;;;;;;36.10;8.00;;;;;;;34.53;27.62;97433.06;4949363;28;20660;-67
2022/04/13 11:17:11;;;;;;;25.05;7.50;;;;;;;34.40;29.99;97417.19;4947973;28;20062;-69
2022/04/13 11:20:22;;;;;;;24.65;7.30;;;;;;;34.33;28.52;97413.78;4949409;29;20142;-68
2022/04/13 11:23:21;;;;;;;31.38;7.57;;;;;;;34.28;26.81;97423.53;4949418;29;20055;-68
2022/04/13 11:26:03;;;;;;;29.38;7.50;;;;;;;34.39;26.91;97414.75;4949733;29;20665;-69
2022/04/13 11:29:16;;;;;;;20.17;6.20;;;;;;;34.45;25.51;97419.19;4942686;29;20126;-67
2022/04/13 11:32:00;;;;;;;28.80;7.88;;;;;;;34.38;27.14;97411.25;4926042;29;20146;-68
2022/04/13 11:34:58;;;;;;;25.50;7.03;;;;;;;34.44;25.44;97423.72;4929638;29;20067;-70
2022/04/13 11:37:36;;;;;;;31.92;8.02;;;;;;;34.42;27.17;97420.44;4913613;29;20055;-68
2022/04/13 11:40:24;;;;;;;31.65;7.00;;;;;;;34.32;26.22;97414.84;4930190;29;20055;-69
2022/04/13 11:43:09;;;;;;;35.90;6.82;;;;;;;34.34;23.90;97415.44;4929764;29;20071;-68
2022/04/13 11:46:00;;;;;;;15.38;6.88;;;;;;;34.21;27.85;97412.91;4930325;29;20051;-68
2022/04/13 11:48:46;;;;;;;33.17;6.60;;;;;;;34.41;23.94;97413.47;4929684;29;20052;-68
2022/04/13 11:51:34;;;;;;;33.92;7.75;;;;;;;34.36;25.44;97410.66;4911694;29;20052;-68
2022/04/13 11:54:19;;;;;;;23.20;6.57;;;;;;;34.31;25.57;97415.91;4929349;29;20094;-70
2022/04/13 11:57:07;;;;;;;24.48;6.03;;;;;;;34.23;25.31;97415.38;4928297;29;20071;-68
2022/04/13 12:00:55;;;;;;;27.85;7.07;;;;;;;34.01;28.28;97409.69;4927899;29;20051;-68
2022/04/13 12:03:41;;;;;;;25.65;7.70;;;;;;;33.94;29.04;97412.44;4928646;29;20075;-68
2022/04/13 12:06:31;;;;;;;23.95;6.60;;;;;;;33.85;27.69;97416.47;4927971;29;20055;-69
2022/04/13 12:09:19;;;;;;;23.20;7.32;;;;;;;33.76;27.76;97418.63;4923988;29;20082;-68
2022/04/13 12:12:02;;;;;;;27.08;6.60;;;;;;;33.65;27.79;97421.22;4930112;29;20487;-67
2022/04/13 12:14:56;;;;;;;27.38;7.00;;;;;;;33.48;30.46;97414.84;4929645;29;20043;-68
2022/04/13 12:17:39;;;;;;;32.13;6.85;;;;;;;33.34;30.58;97419.50;4929814;29;20472;-69
2022/04/13 12:20:31;;;;;;;31.98;8.05;;;;;;;33.23;30.03;97431.72;4926270;29;21424;-69
2022/04/13 12:23:32;;;;;;;30.60;7.75;;;;;;;33.15;29.96;97418.63;4928498;29;20748;-69
2022/04/13 12:26:35;;;;;;;37.92;7.82;;;;;;;33.13;29.77;97426.03;4919819;29;20056;-67
2022/04/13 12:29:30;;;;;;;35.88;8.73;;;;;;;33.07;30.33;97426.91;4936687;28;20051;-67
2022/04/13 12:32:20;;;;;;;32.92;8.18;;;;;;;33.00;30.26;97424.31;4948810;29;20141;-68
2022/04/13 12:35:09;;;;;;;40.22;8.10;;;;;;;32.94;30.74;97435.06;4947061;29;20043;-67
2022/04/13 12:38:04;;;;;;;38.97;10.38;;;;;;;32.86;31.85;97425.47;4946509;29;20789;-69
2022/04/13 12:40:39;;;;;;;31.35;8.93;;;;;;;32.86;31.83;97428.13;4947262;28;20062;-68
2022/04/13 12:43:28;;;;;;;32.22;9.30;;;;;;;32.79;33.45;97424.72;4948697;29;20063;-67
2022/04/13 12:46:21;;;;;;;28.02;9.20;;;;;;;32.77;31.89;97421.44;4946761;29;20467;-67
2022/04/13 12:49:19;;;;;;;37.55;11.10;;;;;;;32.65;33.46;97417.78;4948865;28;20058;-68
2022/04/13 12:52:01;;;;;;;29.73;8.43;;;;;;;32.63;32.60;97420.69;4948371;28;20051;-69
2022/04/13 12:55:01;;;;;;;32.53;9.07;;;;;;;32.60;33.13;97425.63;4944346;29;20055;-69
2022/04/13 12:57:50;;;;;;;38.90;9.38;;;;;;;32.60;31.24;97428.31;4945388;28;20051;-67